Time;durP1;ratioP1;P1;durP2;ratioP2;P2;SDS_P1;SDS_P2;PMS_P1;PMS_P2;Temp;Humidity;BMP_temperature;BMP_pressure;BME280_temperature;BME280_humidity;BME280_pressure;Samples;Min_cycle;Max_cycle;Signal;HPM_P1;HPM_P2
2022/12/14 00:00:48;;;;;;;12.67;8.90;;;;;;;-3.83;100.00;98988.22;5075751;28;20223;-70
2022/12/14 00:03:14;;;;;;;13.07;9.20;;;;;;;-3.76;100.00;98986.44;5100761;28;20484;-70
2022/12/14 00:05:40;;;;;;;13.17;8.50;;;;;;;-3.89;100.00;98979.06;5087671;28;20265;-70
2022/12/14 00:08:06;;;;;;;12.90;8.90;;;;;;;-3.85;100.00;98981.56;5081017;28;20417;-69
2022/12/14 00:10:33;;;;;;;14.67;8.33;;;;;;;-3.87;100.00;98969.00;5080248;28;20964;-70
2022/12/14 00:12:59;;;;;;;11.97;7.87;;;;;;;-3.89;100.00;98964.00;5090131;28;20693;-70
2022/12/14 00:15:24;;;;;;;12.80;8.67;;;;;;;-3.93;100.00;98956.50;5082986;28;20464;-69
2022/12/14 00:17:49;;;;;;;11.90;9.10;;;;;;;-3.92;100.00;98956.50;5103549;28;20180;-69
2022/12/14 00:20:15;;;;;;;11.70;8.03;;;;;;;-3.89;100.00;98953.94;5081927;28;20180;-70
2022/12/14 00:22:40;;;;;;;17.70;8.87;;;;;;;-3.89;100.00;98943.91;5089844;28;20184;-69
2022/12/14 00:25:06;;;;;;;14.07;7.97;;;;;;;-3.82;100.00;98944.66;5090115;28;20191;-69
2022/12/14 00:27:31;;;;;;;12.83;8.83;;;;;;;-3.77;100.00;98930.34;5090549;28;20632;-70
2022/12/14 00:29:57;;;;;;;12.30;9.23;;;;;;;-3.86;100.00;98937.16;5089859;28;20229;-69
2022/12/14 00:32:22;;;;;;;14.27;9.63;;;;;;;-3.81;100.00;98936.25;5075279;28;20222;-69
2022/12/14 00:34:47;;;;;;;12.17;9.40;;;;;;;-3.82;100.00;98929.56;5089676;28;20226;-70
2022/12/14 00:37:13;;;;;;;11.83;8.37;;;;;;;-3.83;100.00;98932.09;5088747;28;20212;-69
2022/12/14 00:39:38;;;;;;;14.80;9.00;;;;;;;-3.81;100.00;98927.88;5089708;28;20222;-70
2022/12/14 00:42:03;;;;;;;9.70;7.07;;;;;;;-3.80;100.00;98934.56;5096516;28;20681;-69
2022/12/14 00:44:28;;;;;;;13.93;8.33;;;;;;;-3.78;100.00;98923.66;5090093;28;20183;-68
2022/12/14 00:46:54;;;;;;;10.73;7.70;;;;;;;-3.75;100.00;98932.81;5092361;28;20176;-70
2022/12/14 00:49:19;;;;;;;14.37;8.27;;;;;;;-3.76;100.00;98934.50;5091735;28;20275;-69
2022/12/14 00:51:44;;;;;;;11.80;8.30;;;;;;;-3.83;100.00;98924.56;5097773;28;20301;-69
2022/12/14 00:54:09;;;;;;;13.20;9.07;;;;;;;-3.89;100.00;98912.91;5112988;28;20548;-69
2022/12/14 00:56:35;;;;;;;13.77;8.50;;;;;;;-3.90;100.00;98909.56;5113792;28;20252;-69
2022/12/14 00:59:00;;;;;;;10.07;7.43;;;;;;;-3.86;100.00;98924.59;5113770;28;20182;-69
2022/12/14 01:01:25;;;;;;;15.43;7.10;;;;;;;-3.83;100.00;98920.38;5082821;28;20724;-70
2022/12/14 01:04:15;;;;;;;13.43;7.87;;;;;;;-3.78;100.00;98902.72;5070416;28;20172;-70
2022/12/14 01:06:36;;;;;;;10.03;7.60;;;;;;;-3.78;100.00;98907.75;5093216;28;20714;-70
2022/12/14 01:09:02;;;;;;;11.93;8.43;;;;;;;-3.82;100.00;98914.50;5093583;28;20556;-70
2022/12/14 01:11:27;;;;;;;11.37;8.20;;;;;;;-3.78;100.00;98908.56;5065171;28;20224;-70
2022/12/14 01:13:54;;;;;;;12.30;8.00;;;;;;;-3.76;100.00;98916.91;5093118;28;20272;-70
2022/12/14 01:16:19;;;;;;;10.43;7.83;;;;;;;-3.72;100.00;98917.69;5075511;28;20184;-69
2022/12/14 01:18:45;;;;;;;11.10;7.97;;;;;;;-3.65;100.00;98924.28;5092853;28;20425;-71
2022/12/14 01:21:13;;;;;;;13.40;9.37;;;;;;;-3.70;100.00;98917.69;5055118;28;20278;-71
2022/12/14 01:23:39;;;;;;;10.13;7.60;;;;;;;-3.74;100.00;98909.34;5085525;28;20194;-70
2022/12/14 01:26:04;;;;;;;13.37;8.50;;;;;;;-3.69;100.00;98910.09;5093403;28;20419;-70
2022/12/14 01:28:29;;;;;;;13.17;8.07;;;;;;;-3.75;100.00;98900.97;5091556;28;20168;-70
2022/12/14 01:30:54;;;;;;;12.30;8.00;;;;;;;-3.72;100.00;98895.09;5075174;28;20220;-70
2022/12/14 01:33:20;;;;;;;12.57;8.27;;;;;;;-3.66;100.00;98899.16;5079019;28;20350;-70
2022/12/14 01:35:45;;;;;;;10.60;7.33;;;;;;;-3.74;100.00;98896.78;5055602;28;20726;-69
2022/12/14 01:38:10;;;;;;;13.47;8.37;;;;;;;-3.74;100.00;98891.75;5091249;28;20176;-70
2022/12/14 01:40:35;;;;;;;11.40;8.23;;;;;;;-3.64;100.00;98887.41;5071794;28;20326;-70
2022/12/14 01:43:01;;;;;;;11.73;8.20;;;;;;;-3.68;100.00;98883.28;5078521;28;20536;-70
2022/12/14 01:45:26;;;;;;;12.10;8.63;;;;;;;-3.73;100.00;98876.66;5091614;28;20242;-70
2022/12/14 01:47:56;;;;;;;10.40;7.63;;;;;;;-3.70;100.00;98873.25;5087441;28;20168;-69
2022/12/14 01:50:38;;;;;;;9.53;6.07;;;;;;;-3.73;100.00;98863.25;5080189;28;20185;-69
2022/12/14 01:53:09;;;;;;;11.80;7.53;;;;;;;-3.73;100.00;98870.81;5063666;28;20418;-70
2022/12/14 01:55:38;;;;;;;8.30;6.73;;;;;;;-3.67;100.00;98862.31;5093400;28;20453;-70
2022/12/14 01:58:14;;;;;;;11.53;7.93;;;;;;;-3.69;100.00;98857.31;5073824;28;20426;-69
2022/12/14 02:00:41;;;;;;;10.80;7.77;;;;;;;-3.67;100.00;98859.81;5081631;28;20477;-70
2022/12/14 02:03:14;;;;;;;9.27;7.00;;;;;;;-3.68;100.00;98848.94;5092338;28;20751;-68
2022/12/14 02:05:45;;;;;;;8.47;7.03;;;;;;;-3.66;100.00;98856.44;5092797;28;20897;-68
2022/12/14 02:08:12;;;;;;;9.87;7.40;;;;;;;-3.67;100.00;98853.09;5092611;28;20422;-69
2022/12/14 02:10:37;;;;;;;11.93;8.73;;;;;;;-3.70;100.00;98859.88;5076756;28;20463;-70
2022/12/14 02:13:10;;;;;;;8.90;6.53;;;;;;;-3.68;100.00;98859.00;5080278;28;20466;-70
2022/12/14 02:15:37;;;;;;;12.67;8.13;;;;;;;-3.64;100.00;98855.56;5074478;28;20575;-69
2022/12/14 02:18:04;;;;;;;11.67;7.73;;;;;;;-3.59;100.00;98853.78;5092080;28;20406;-69
2022/12/14 02:20:38;;;;;;;12.60;7.53;;;;;;;-3.62;100.00;98846.31;5078166;28;20494;-70
2022/12/14 02:23:20;;;;;;;9.83;7.37;;;;;;;-3.61;100.00;98844.63;5080304;28;20414;-69
2022/12/14 02:25:54;;;;;;;10.43;7.17;;;;;;;-3.65;100.00;98848.88;5072673;28;20426;-70
2022/12/14 02:28:47;;;;;;;9.53;7.10;;;;;;;-3.63;100.00;98833.78;5072996;28;20428;-69
2022/12/14 02:31:28;;;;;;;11.93;7.00;;;;;;;-3.57;100.00;98831.16;5062480;28;20486;-69
2022/12/14 02:34:08;;;;;;;10.20;7.10;;;;;;;-3.63;100.00;98817.00;5072873;28;20453;-70
2022/12/14 02:36:59;;;;;;;12.97;8.17;;;;;;;-3.63;100.00;98806.94;5073110;28;21362;-70
2022/12/14 02:39:53;;;;;;;15.97;7.60;;;;;;;-3.69;100.00;98804.53;5074609;28;20443;-69
2022/12/14 02:42:28;;;;;;;13.13;7.93;;;;;;;-3.67;100.00;98800.31;5082579;28;20485;-69
2022/12/14 02:44:57;;;;;;;11.57;7.83;;;;;;;-3.65;100.00;98802.81;5081033;28;20414;-70
2022/12/14 02:47:38;;;;;;;8.93;6.30;;;;;;;-3.62;100.00;98796.03;5091884;28;20425;-70
2022/12/14 02:50:18;;;;;;;10.53;7.33;;;;;;;-3.66;100.00;98801.16;5075692;28;20460;-69
2022/12/14 02:53:00;;;;;;;11.00;7.67;;;;;;;-3.65;100.00;98792.75;5072989;28;20923;-71
2022/12/14 02:55:53;;;;;;;13.63;7.53;;;;;;;-3.59;100.00;98790.94;5081285;28;20424;-70
2022/12/14 02:58:27;;;;;;;9.87;7.00;;;;;;;-3.60;100.00;98783.44;5088157;28;20434;-71
2022/12/14 03:00:55;;;;;;;11.90;7.13;;;;;;;-3.56;100.00;98787.53;5067684;28;20561;-70
2022/12/14 03:03:20;;;;;;;10.07;6.80;;;;;;;-3.50;100.00;98792.47;5080106;28;20411;-70
2022/12/14 03:06:13;;;;;;;11.20;7.67;;;;;;;-3.62;100.00;98791.03;5036969;28;20457;-70
2022/12/14 03:08:41;;;;;;;8.27;5.53;;;;;;;-3.61;100.00;98789.31;5054713;28;20507;-71
2022/12/14 03:11:20;;;;;;;13.90;8.03;;;;;;;-3.50;100.00;98787.44;5069929;28;20484;-70
2022/12/14 03:13:48;;;;;;;18.33;10.97;;;;;;;-3.55;100.00;98786.69;5093954;28;20470;-70
2022/12/14 03:16:18;;;;;;;12.27;8.60;;;;;;;-3.52;100.00;98779.13;5091500;28;20461;-68
2022/12/14 03:18:50;;;;;;;10.53;7.03;;;;;;;-3.62;100.00;98773.41;5074625;28;20490;-70
2022/12/14 03:21:26;;;;;;;9.73;6.63;;;;;;;-3.64;100.00;98771.78;5061640;28;20577;-70
2022/12/14 03:23:53;;;;;;;10.50;6.37;;;;;;;-3.70;100.00;98760.16;5090731;28;20490;-69
2022/12/14 03:26:41;;;;;;;10.10;7.43;;;;;;;-3.76;100.00;98756.09;5085056;28;20421;-66
2022/12/14 03:29:14;;;;;;;12.13;6.73;;;;;;;-3.76;100.00;98746.03;5076004;28;20902;-68
2022/12/14 03:31:52;;;;;;;10.47;6.90;;;;;;;-3.76;100.00;98743.53;5080509;28;20506;-69
2022/12/14 03:34:23;;;;;;;10.07;6.90;;;;;;;-3.78;100.00;98741.91;5075302;28;20410;-69
2022/12/14 03:36:55;;;;;;;10.70;6.87;;;;;;;-3.78;100.00;98742.72;5064934;28;20953;-69
2022/12/14 03:39:26;;;;;;;10.60;7.33;;;;;;;-3.84;100.00;98745.31;5066667;28;20419;-69
2022/12/14 03:42:09;;;;;;;10.23;6.97;;;;;;;-3.86;100.00;98731.97;5063736;28;20470;-69
2022/12/14 03:44:47;;;;;;;10.43;6.93;;;;;;;-3.85;100.00;98727.78;5086777;28;20807;-69
2022/12/14 03:47:23;;;;;;;9.53;6.20;;;;;;;-3.83;100.00;98728.56;5071401;28;20890;-70
2022/12/14 03:50:13;;;;;;;11.87;7.20;;;;;;;-3.81;100.00;98732.69;5076258;28;20472;-70
2022/12/14 03:53:01;;;;;;;10.77;7.43;;;;;;;-3.64;100.00;98739.13;5072093;28;20457;-69
2022/12/14 03:55:42;;;;;;;13.00;7.87;;;;;;;-3.74;100.00;98730.91;5089476;28;20521;-69
2022/12/14 03:58:25;;;;;;;9.33;7.10;;;;;;;-3.73;100.00;98720.84;5097566;28;20422;-68
2022/12/14 04:01:05;;;;;;;10.17;7.37;;;;;;;-3.76;100.00;98723.41;5073591;28;20979;-69
2022/12/14 04:04:01;;;;;;;10.83;7.80;;;;;;;-3.66;100.00;98734.13;5104535;28;20414;-69
2022/12/14 04:06:35;;;;;;;11.43;7.33;;;;;;;-3.69;100.00;98718.28;5106739;28;20522;-69
2022/12/14 04:09:27;;;;;;;11.37;7.30;;;;;;;-3.68;100.00;98715.72;5111607;28;20908;-69
2022/12/14 04:20:49;;;;;;;11.70;7.83;;;;;;;-3.59;100.00;98728.09;5066644;28;20548;-69
2022/12/14 04:26:19;;;;;;;11.43;8.00;;;;;;;-3.52;100.00;98720.44;5115295;28;20462;-68
2022/12/14 04:31:48;;;;;;;10.63;7.10;;;;;;;-3.59;100.00;98719.75;5082240;28;20609;-70
2022/12/14 04:34:16;;;;;;;11.13;7.13;;;;;;;-3.46;100.00;98716.16;5106662;28;20910;-70
2022/12/14 04:36:48;;;;;;;13.00;8.43;;;;;;;-3.60;100.00;98723.13;5108609;28;20454;-70
2022/12/14 04:39:21;;;;;;;13.60;8.70;;;;;;;-3.63;100.00;98736.56;5114388;28;21229;-69
2022/12/14 04:41:51;;;;;;;15.07;7.60;;;;;;;-3.63;100.00;98725.69;5089335;27;20505;-69
2022/12/14 04:44:48;;;;;;;12.77;7.60;;;;;;;-3.57;100.00;98718.03;5107173;27;20498;-69
2022/12/14 04:47:16;;;;;;;9.00;6.60;;;;;;;-3.50;100.00;98718.75;5105277;28;20418;-70
2022/12/14 04:50:19;;;;;;;9.93;7.37;;;;;;;-3.54;100.00;98729.72;5099076;28;20397;-70
2022/12/14 04:53:01;;;;;;;14.63;8.80;;;;;;;-3.57;100.00;98726.41;4998040;28;20465;-69
2022/12/14 04:55:42;;;;;;;11.80;7.63;;;;;;;-3.54;100.00;98735.56;5012342;28;20508;-69
2022/12/14 04:58:18;;;;;;;11.17;7.47;;;;;;;-3.42;100.00;98724.47;5010020;28;20414;-70
2022/12/14 05:01:03;;;;;;;7.87;6.53;;;;;;;-3.36;100.00;98731.88;5002125;28;20961;-69
2022/12/14 05:03:33;;;;;;;10.23;7.20;;;;;;;-3.20;100.00;98729.91;5012540;28;20754;-70
2022/12/14 05:06:12;;;;;;;13.30;7.77;;;;;;;-3.33;100.00;98720.94;5011717;28;20422;-69
2022/12/14 05:08:51;;;;;;;13.70;7.77;;;;;;;-3.39;100.00;98726.91;5011624;28;20477;-70
2022/12/14 05:11:25;;;;;;;10.20;7.37;;;;;;;-3.41;100.00;98724.41;4976143;28;20485;-70
2022/12/14 05:13:51;;;;;;;11.17;7.80;;;;;;;-3.50;100.00;98723.78;4975579;28;20482;-69
2022/12/14 05:16:18;;;;;;;8.83;7.03;;;;;;;-3.44;100.00;98726.97;4976004;28;20465;-70
2022/12/14 05:18:44;;;;;;;12.20;8.87;;;;;;;-3.39;100.00;98728.59;4991961;28;20211;-68
2022/12/14 05:21:45;;;;;;;12.00;7.60;;;;;;;-3.41;100.00;98724.41;4982328;28;20474;-69
2022/12/14 05:24:01;;;;;;;9.10;6.90;;;;;;;-3.43;100.00;98726.13;4991892;28;20271;-70
2022/12/14 05:26:26;;;;;;;13.70;8.33;;;;;;;-3.41;100.00;98723.59;4991825;28;20419;-69
2022/12/14 05:28:54;;;;;;;12.67;7.43;;;;;;;-3.41;100.00;98724.41;5061296;28;20425;-69
2022/12/14 05:31:19;;;;;;;12.93;8.37;;;;;;;-3.39;100.00;98716.84;5060347;27;20266;-69
2022/12/14 05:33:45;;;;;;;13.13;8.83;;;;;;;-3.39;100.00;98711.00;5118575;27;20494;-69
2022/12/14 05:36:10;;;;;;;12.20;8.40;;;;;;;-3.42;100.00;98711.88;5108984;28;20248;-70
2022/12/14 05:38:35;;;;;;;13.43;9.27;;;;;;;-3.43;100.00;98698.47;5112629;28;20172;-69
2022/12/14 05:41:01;;;;;;;10.17;7.07;;;;;;;-3.44;100.00;98696.81;5091030;27;20223;-70
2022/12/14 05:43:26;;;;;;;14.70;9.10;;;;;;;-3.40;100.00;98692.56;5094936;28;20272;-69
2022/12/14 05:46:03;;;;;;;11.03;8.07;;;;;;;-3.49;100.00;98691.06;5073152;28;20208;-70
2022/12/14 05:48:28;;;;;;;14.23;9.43;;;;;;;-3.40;100.00;98677.47;5073230;28;20192;-69
2022/12/14 05:50:54;;;;;;;11.47;8.17;;;;;;;-3.29;100.00;98672.22;5070070;27;20472;-70
2022/12/14 05:53:19;;;;;;;12.63;8.33;;;;;;;-3.29;100.00;98665.50;5102618;27;20643;-69
2022/12/14 05:55:49;;;;;;;12.10;8.70;;;;;;;-3.32;100.00;98662.25;5084282;28;20506;-69
2022/12/14 05:58:15;;;;;;;15.80;9.80;;;;;;;-3.33;100.00;98648.81;5092604;28;20274;-68
2022/12/14 06:00:40;;;;;;;14.13;9.77;;;;;;;-3.17;100.00;98653.53;5083500;28;21112;-69
2022/12/14 06:03:05;;;;;;;14.20;8.97;;;;;;;-3.06;100.00;98651.59;5092721;28;20540;-69
2022/12/14 06:05:31;;;;;;;11.73;8.33;;;;;;;-3.18;100.00;98647.66;5076936;28;20192;-69
2022/12/14 06:07:56;;;;;;;12.87;8.47;;;;;;;-3.20;100.00;98651.91;5072778;28;20185;-70
2022/12/14 06:10:22;;;;;;;15.00;8.90;;;;;;;-3.15;100.00;98647.63;5067462;28;20277;-70
2022/12/14 06:12:47;;;;;;;13.33;8.73;;;;;;;-3.18;100.00;98646.84;5105817;28;20667;-69
2022/12/14 06:15:12;;;;;;;9.23;7.50;;;;;;;-3.31;100.00;98643.75;5077202;28;20196;-70
2022/12/14 06:17:42;;;;;;;11.77;8.80;;;;;;;-3.31;100.00;98628.66;5072677;28;20231;-69
2022/12/14 06:20:08;;;;;;;14.13;9.00;;;;;;;-3.36;100.00;98628.78;5062043;28;20188;-69
2022/12/14 06:22:33;;;;;;;12.97;8.97;;;;;;;-3.23;100.00;98631.03;5085902;28;20749;-68
2022/12/14 06:24:58;;;;;;;10.33;8.33;;;;;;;-3.37;100.00;98622.09;5076914;28;20993;-70
2022/12/14 06:27:24;;;;;;;13.13;9.57;;;;;;;-3.41;100.00;98612.97;5072290;28;20208;-69
2022/12/14 06:29:49;;;;;;;18.87;10.43;;;;;;;-3.51;100.00;98607.31;5084561;28;20179;-69
2022/12/14 06:32:14;;;;;;;17.30;10.80;;;;;;;-3.57;100.00;98598.19;5063810;28;20285;-69
2022/12/14 06:34:39;;;;;;;18.30;10.47;;;;;;;-3.58;100.00;98604.09;5074251;28;20225;-68
2022/12/14 06:37:05;;;;;;;21.73;8.93;;;;;;;-3.66;100.00;98603.44;5091019;28;20192;-69
2022/12/14 06:39:30;;;;;;;15.97;9.97;;;;;;;-3.61;100.00;98598.28;5078221;28;20180;-69
2022/12/14 06:41:55;;;;;;;20.67;11.40;;;;;;;-3.58;100.00;98598.25;5090924;28;20220;-69
2022/12/14 06:44:21;;;;;;;16.37;10.50;;;;;;;-3.63;100.00;98589.97;5078328;28;20703;-69
2022/12/14 06:46:46;;;;;;;14.60;9.67;;;;;;;-3.63;100.00;98593.31;5072148;28;20263;-70
2022/12/14 06:49:14;;;;;;;17.87;10.03;;;;;;;-3.76;100.00;98580.19;5072934;28;20184;-70
2022/12/14 06:51:40;;;;;;;15.87;10.77;;;;;;;-3.73;100.00;98580.09;5082587;28;20227;-66
2022/12/14 06:54:05;;;;;;;16.40;10.50;;;;;;;-3.63;100.00;98583.25;5093502;28;20943;-70
2022/12/14 06:56:31;;;;;;;13.37;10.00;;;;;;;-3.54;100.00;98578.91;5073955;28;20553;-70
2022/12/14 06:58:56;;;;;;;16.37;9.50;;;;;;;-3.49;100.00;98577.09;5072651;28;20292;-70
2022/12/14 07:01:23;;;;;;;14.87;10.17;;;;;;;-3.41;100.00;98577.78;5081823;28;20646;-70
2022/12/14 07:03:52;;;;;;;14.70;9.37;;;;;;;-3.53;100.00;98568.81;5077603;28;20184;-69
2022/12/14 07:06:18;;;;;;;14.87;9.63;;;;;;;-3.51;100.00;98557.03;5072267;28;20943;-67
2022/12/14 07:08:44;;;;;;;13.27;9.00;;;;;;;-3.44;100.00;98568.59;5073035;28;20426;-70
2022/12/14 07:11:12;;;;;;;14.03;9.33;;;;;;;-3.37;100.00;98564.25;5078380;28;20842;-68
2022/12/14 07:13:38;;;;;;;17.20;11.00;;;;;;;-3.36;100.00;98552.50;5087290;28;20286;-70
2022/12/14 07:16:05;;;;;;;15.50;9.90;;;;;;;-3.37;100.00;98561.75;5091840;28;20450;-70
2022/12/14 07:18:31;;;;;;;15.60;10.73;;;;;;;-3.45;100.00;98568.63;5090753;28;20216;-68
2022/12/14 07:20:57;;;;;;;16.13;8.90;;;;;;;-3.44;100.00;98561.03;5088472;28;20709;-69
2022/12/14 07:23:23;;;;;;;18.43;10.67;;;;;;;-3.46;100.00;98541.81;5099573;28;20415;-70
2022/12/14 07:25:49;;;;;;;13.90;10.83;;;;;;;-3.46;100.00;98549.38;5089741;28;20235;-69
2022/12/14 07:28:14;;;;;;;15.13;10.10;;;;;;;-3.39;100.00;98555.91;5090224;28;20863;-70
2022/12/14 07:30:39;;;;;;;13.80;10.03;;;;;;;-3.48;100.00;98572.03;5085772;28;20258;-69
2022/12/14 07:33:05;;;;;;;17.20;11.53;;;;;;;-3.49;100.00;98574.59;5101659;28;20176;-69
2022/12/14 07:35:30;;;;;;;15.53;9.63;;;;;;;-3.57;100.00;98573.06;5087224;28;20180;-69
2022/12/14 07:37:55;;;;;;;14.97;10.53;;;;;;;-3.59;100.00;98567.22;5088468;28;20173;-69
2022/12/14 07:40:21;;;;;;;17.33;10.30;;;;;;;-3.50;100.00;98572.94;5082174;28;20260;-71
2022/12/14 07:42:49;;;;;;;14.97;10.77;;;;;;;-3.58;100.00;98586.50;5103615;28;20185;-70
2022/12/14 07:45:15;;;;;;;15.70;10.47;;;;;;;-3.54;100.00;98599.81;5090710;28;20235;-69
2022/12/14 07:47:41;;;;;;;16.50;11.40;;;;;;;-3.54;100.00;98604.03;5089286;28;20414;-68
2022/12/14 07:50:07;;;;;;;14.27;11.10;;;;;;;-3.61;100.00;98624.28;5081101;28;20176;-71
2022/12/14 07:52:32;;;;;;;15.43;11.07;;;;;;;-3.57;100.00;98633.41;5092556;28;20930;-70
2022/12/14 07:54:57;;;;;;;18.57;12.80;;;;;;;-3.63;100.00;98631.00;5089059;28;20686;-70
2022/12/14 07:57:22;;;;;;;16.53;12.30;;;;;;;-3.59;100.00;98635.09;5087771;28;20200;-70
2022/12/14 07:59:48;;;;;;;15.57;10.80;;;;;;;-3.57;100.00;98630.88;5094630;28;20180;-70
2022/12/14 08:02:13;;;;;;;16.77;11.73;;;;;;;-3.64;100.00;98621.00;5058027;28;20688;-71
2022/12/14 08:04:38;;;;;;;16.13;11.47;;;;;;;-3.60;100.00;98625.09;5094431;28;20188;-71
2022/12/14 08:07:04;;;;;;;17.13;12.93;;;;;;;-3.54;100.00;98621.63;5092125;28;20617;-71
2022/12/14 08:09:29;;;;;;;17.20;12.47;;;;;;;-3.58;100.00;98608.28;5094360;28;20188;-70
2022/12/14 08:11:55;;;;;;;15.70;11.30;;;;;;;-3.56;100.00;98606.56;5099258;27;20222;-70
2022/12/14 08:14:20;;;;;;;19.10;12.43;;;;;;;-3.48;100.00;98596.38;5087904;28;20717;-70
2022/12/14 08:16:47;;;;;;;16.93;11.77;;;;;;;-3.50;100.00;98595.56;5079456;28;20228;-71
2022/12/14 08:19:13;;;;;;;17.37;11.77;;;;;;;-3.61;100.00;98598.28;5089675;28;20185;-71
2022/12/14 08:21:39;;;;;;;16.30;12.07;;;;;;;-3.66;100.00;98605.94;5083156;27;20974;-67
2022/12/14 08:24:05;;;;;;;15.70;12.10;;;;;;;-3.61;100.00;98609.19;5093368;27;20432;-70
2022/12/14 08:26:31;;;;;;;21.03;13.27;;;;;;;-3.49;100.00;98613.13;5075204;28;20218;-71
2022/12/14 08:28:56;;;;;;;21.07;13.77;;;;;;;-3.49;100.00;98608.09;5086923;28;20208;-71
2022/12/14 08:31:24;;;;;;;19.00;13.80;;;;;;;-3.41;100.00;98606.25;5061506;28;20278;-71
2022/12/14 08:33:51;;;;;;;19.60;12.80;;;;;;;-3.39;100.00;98603.69;5085136;28;20204;-70
2022/12/14 08:36:23;;;;;;;17.27;11.77;;;;;;;-3.57;100.00;98605.75;5079464;28;20814;-71
2022/12/14 08:38:53;;;;;;;19.57;12.00;;;;;;;-3.50;100.00;98588.00;5084019;28;20426;-71
2022/12/14 08:41:19;;;;;;;18.73;11.90;;;;;;;-3.61;100.00;98589.09;5094155;28;20473;-71
2022/12/14 08:43:48;;;;;;;17.90;11.63;;;;;;;-3.60;100.00;98595.78;5100168;28;20414;-70
2022/12/14 08:46:14;;;;;;;17.23;12.93;;;;;;;-3.40;100.00;98594.50;5094119;28;20412;-69
2022/12/14 08:48:39;;;;;;;16.90;12.63;;;;;;;-3.34;100.00;98599.38;5092829;28;20513;-70
2022/12/14 08:51:06;;;;;;;18.83;13.13;;;;;;;-3.49;100.00;98590.50;5092123;28;20698;-70
2022/12/14 08:53:32;;;;;;;17.53;12.00;;;;;;;-3.56;100.00;98581.41;5092974;28;20197;-71
2022/12/14 08:55:57;;;;;;;18.50;13.07;;;;;;;-3.49;100.00;98584.66;5094124;28;20447;-70
2022/12/14 08:58:23;;;;;;;18.20;13.27;;;;;;;-3.52;100.00;98588.06;5094868;28;20194;-71
2022/12/14 09:00:48;;;;;;;17.53;11.83;;;;;;;-3.52;100.00;98593.09;5095765;28;20218;-70
2022/12/14 09:03:14;;;;;;;16.03;12.33;;;;;;;-3.58;100.00;98588.19;5104511;28;20176;-71
2022/12/14 09:05:39;;;;;;;16.10;12.73;;;;;;;-3.65;100.00;98569.06;5093959;28;20180;-67
2022/12/14 09:08:04;;;;;;;14.67;10.30;;;;;;;-3.69;100.00;98567.50;5093923;28;20184;-71
2022/12/14 09:10:30;;;;;;;16.50;12.77;;;;;;;-3.57;100.00;98578.09;5087067;28;20211;-71
2022/12/14 09:12:57;;;;;;;18.33;13.13;;;;;;;-3.41;100.00;98595.38;5105880;28;20285;-71
2022/12/14 09:15:22;;;;;;;19.00;13.13;;;;;;;-3.38;100.00;98609.56;5091623;28;20184;-70
2022/12/14 09:17:48;;;;;;;15.27;11.47;;;;;;;-3.30;100.00;98607.69;5093581;28;20488;-70
2022/12/14 09:20:14;;;;;;;19.80;12.93;;;;;;;-3.35;100.00;98609.47;5083187;28;20184;-71
2022/12/14 09:22:39;;;;;;;17.93;12.50;;;;;;;-3.33;100.00;98607.78;5092378;28;20488;-70
2022/12/14 09:25:08;;;;;;;18.13;12.03;;;;;;;-3.17;100.00;98608.25;5092066;28;20264;-71
2022/12/14 09:27:33;;;;;;;19.90;13.10;;;;;;;-3.09;100.00;98604.72;5092589;28;20231;-70
2022/12/14 09:29:58;;;;;;;17.17;11.70;;;;;;;-2.97;100.00;98607.81;5088403;28;20423;-71
2022/12/14 09:32:23;;;;;;;15.03;10.93;;;;;;;-2.94;100.00;98597.66;5099385;28;20226;-71
2022/12/14 09:34:49;;;;;;;16.87;12.17;;;;;;;-3.13;100.00;98600.59;5088871;28;20606;-70
2022/12/14 09:37:14;;;;;;;18.27;12.83;;;;;;;-3.25;100.00;98599.19;5076654;28;20207;-70
2022/12/14 09:39:40;;;;;;;21.17;12.67;;;;;;;-3.34;100.00;98601.09;5072419;28;20519;-69
2022/12/14 09:42:14;;;;;;;19.93;13.67;;;;;;;-3.42;100.00;98603.78;5097430;27;20369;-70
2022/12/14 09:45:11;;;;;;;19.27;13.07;;;;;;;-3.22;100.00;98599.97;5082655;28;20191;-71
2022/12/14 09:47:52;;;;;;;17.63;12.67;;;;;;;-3.10;100.00;98604.72;5084605;28;20406;-70
2022/12/14 09:50:20;;;;;;;17.27;11.87;;;;;;;-3.15;100.00;98611.56;5065429;28;20423;-71
2022/12/14 09:52:52;;;;;;;20.20;12.80;;;;;;;-3.21;100.00;98607.50;5087503;28;20437;-71
2022/12/14 09:55:28;;;;;;;19.20;12.57;;;;;;;-3.33;100.00;98601.03;5075731;28;20423;-71
2022/12/14 09:58:11;;;;;;;15.33;11.80;;;;;;;-3.25;100.00;98598.34;5101110;28;20941;-71
2022/12/14 10:00:43;;;;;;;16.60;11.63;;;;;;;-3.29;100.00;98599.28;5076123;28;20470;-70
2022/12/14 10:03:20;;;;;;;19.47;13.50;;;;;;;-3.44;100.00;98591.22;5101575;28;20413;-70
2022/12/14 10:06:20;;;;;;;15.03;11.17;;;;;;;-3.31;100.00;98584.25;5073771;28;20981;-69
2022/12/14 10:09:01;;;;;;;16.53;11.53;;;;;;;-3.43;100.00;98592.88;5074475;28;20431;-69
2022/12/14 10:11:48;;;;;;;18.00;12.23;;;;;;;-3.33;100.00;98588.47;5082916;27;21035;-71
2022/12/14 10:14:51;;;;;;;19.87;12.80;;;;;;;-3.17;100.00;98595.69;5088253;28;20462;-72
2022/12/14 10:17:33;;;;;;;19.67;12.80;;;;;;;-3.11;100.00;98593.84;5078602;28;21122;-70
2022/12/14 10:20:10;;;;;;;16.13;12.63;;;;;;;-3.30;100.00;98593.44;5091866;28;20536;-71
2022/12/14 10:22:41;;;;;;;21.17;10.80;;;;;;;-3.26;100.00;98596.72;5081202;28;20497;-69
2022/12/14 10:25:19;;;;;;;15.50;11.93;;;;;;;-3.33;100.00;98590.97;5090850;28;20429;-71
2022/12/14 10:28:10;;;;;;;17.47;11.30;;;;;;;-3.28;100.00;98586.69;5089358;28;20545;-70
2022/12/14 10:30:36;;;;;;;17.97;11.53;;;;;;;-3.28;100.00;98581.66;5075397;28;20473;-70
2022/12/14 10:33:09;;;;;;;18.17;11.80;;;;;;;-3.22;100.00;98573.16;5103310;28;20428;-70
2022/12/14 10:35:41;;;;;;;15.07;11.43;;;;;;;-3.13;100.00;98574.63;5092633;28;20184;-71
2022/12/14 10:38:21;;;;;;;19.00;12.93;;;;;;;-3.01;100.00;98576.03;5092174;28;20442;-71
2022/12/14 10:40:48;;;;;;;15.20;10.30;;;;;;;-3.13;100.00;98567.88;5088091;28;20544;-70
2022/12/14 10:43:45;;;;;;;18.33;12.00;;;;;;;-3.15;100.00;98569.63;5101867;28;20415;-70
2022/12/14 10:46:26;;;;;;;16.33;11.53;;;;;;;-3.20;100.00;98578.13;5092228;28;20427;-71
2022/12/14 10:49:13;;;;;;;17.13;11.40;;;;;;;-3.25;100.00;98576.56;5092309;28;20416;-69
2022/12/14 10:51:46;;;;;;;18.60;13.00;;;;;;;-3.06;100.00;98568.59;5070435;28;20474;-66
2022/12/14 10:54:29;;;;;;;18.33;12.40;;;;;;;-3.00;100.00;98570.97;5075177;28;20456;-71
2022/12/14 10:56:54;;;;;;;16.23;12.57;;;;;;;-2.97;100.00;98570.88;5072445;28;20471;-70
2022/12/14 10:59:26;;;;;;;15.77;11.93;;;;;;;-2.84;100.00;98573.09;5073333;28;20419;-70
2022/12/14 11:02:02;;;;;;;16.97;12.17;;;;;;;-2.89;100.00;98573.22;5082618;28;20221;-70
2022/12/14 11:04:50;;;;;;;20.33;11.53;;;;;;;-3.01;100.00;98576.03;5078608;28;20422;-69
2022/12/14 11:07:18;;;;;;;21.80;12.97;;;;;;;-2.89;100.00;98570.72;5077899;28;20414;-71
2022/12/14 11:09:44;;;;;;;19.20;13.23;;;;;;;-2.87;100.00;98579.03;5090288;28;20497;-70
2022/12/14 11:12:12;;;;;;;16.03;12.63;;;;;;;-2.86;100.00;98575.66;5097193;28;20908;-71
2022/12/14 11:14:49;;;;;;;17.43;12.40;;;;;;;-2.97;100.00;98573.38;5088645;28;20746;-71
2022/12/14 11:17:28;;;;;;;18.47;12.63;;;;;;;-2.76;100.00;98574.56;5071530;28;20491;-71
2022/12/14 11:20:12;;;;;;;17.70;11.70;;;;;;;-2.79;100.00;98553.66;5076598;28;20408;-71
2022/12/14 11:22:45;;;;;;;19.33;12.27;;;;;;;-2.93;100.00;98551.50;5067017;28;20873;-70
2022/12/14 11:25:32;;;;;;;20.63;12.03;;;;;;;-2.85;100.00;98553.81;5088826;28;20762;-69
2022/12/14 11:28:00;;;;;;;18.17;12.03;;;;;;;-2.66;100.00;98561.75;5072013;28;20426;-70
2022/12/14 11:30:27;;;;;;;19.57;13.90;;;;;;;-2.83;100.00;98549.59;5068613;28;20472;-69
2022/12/14 11:32:53;;;;;;;19.00;12.03;;;;;;;-2.78;100.00;98547.78;5116924;27;20424;-71
2022/12/14 11:35:20;;;;;;;16.60;10.53;;;;;;;-2.84;100.00;98545.41;5090483;28;20504;-70
2022/12/14 11:37:49;;;;;;;17.67;12.03;;;;;;;-2.93;100.00;98546.47;5071866;28;20301;-69
2022/12/14 11:40:26;;;;;;;20.63;12.53;;;;;;;-2.80;100.00;98552.03;5078832;28;20440;-70
2022/12/14 11:43:02;;;;;;;17.20;12.03;;;;;;;-2.82;100.00;98554.56;5104428;28;20421;-71
2022/12/14 11:45:30;;;;;;;18.87;11.73;;;;;;;-2.66;100.00;98551.69;5073484;28;20424;-70